»·PEaware :: N5205X KTOA-KOXR

N5205X :: KTOA-KOXR

FLIGHT INFORMATION

Flight Status: Arrived
Operator: Privately registered:
United States
More flights under this callsign
Pilot: Martin B. (29991)
Aircraft: CIRRUS SR-22
(SR22)
More flights by this aircraft type
Origin: KTOA Zamperini
United States
Destination: KOXR Oxnard
United States
More flights between these airports :: More routes between these airports
Route: LAX170 LIMBO V64 SMO125 SMO VNY
File this flight plan on PilotEdge
Remarks:
Altitude:
(Current/Filed)
4,000ft
Speed:
(Current/Filed)
160kts
Departed: 04-Aug-21 09:14 AM
Arrived: 04-Aug-21 09:49 AM
Distance/Time
Traveled:
49nm/0:35
Distance/Time
To Go:
Arrived

Flight Plot

Page will automatically refresh every two minutes.

Flight plan parsing failed; only flown route is shown


Map Options




Map Legend


Flown Route
Filed Route
Departure Airport
Arrival Airport
Navaid (VOR, NDB)
Fix

Horizontal Profiles

Position Reports

Time Latitude Longitude Heading Altitude Ground
Speed
04-Aug-21 08:50 33.803659 -118.344525 346 105ft 0kts
04-Aug-21 08:51 33.803659 -118.344525 346 105ft 0kts
04-Aug-21 08:52 33.803659 -118.344525 346 105ft 0kts
04-Aug-21 08:53 33.803659 -118.344525 346 105ft 0kts
04-Aug-21 08:54 33.803659 -118.344525 346 105ft 0kts
04-Aug-21 08:55 33.803659 -118.344525 346 105ft 0kts
04-Aug-21 08:56 33.803659 -118.344525 346 105ft 0kts
04-Aug-21 08:57 33.803659 -118.344525 346 105ft 0kts
04-Aug-21 08:58 33.803659 -118.344525 346 105ft 0kts
04-Aug-21 08:59 33.803659 -118.344525 346 105ft 0kts
04-Aug-21 09:00 33.803659 -118.344525 346 105ft 0kts
04-Aug-21 09:01 33.803659 -118.344525 346 105ft 0kts
04-Aug-21 09:02 33.803659 -118.344525 346 105ft 0kts
04-Aug-21 09:03 33.803659 -118.344525 346 105ft 0kts
04-Aug-21 09:04 33.803659 -118.344525 346 105ft 0kts
04-Aug-21 09:05 33.803659 -118.344525 346 105ft 0kts
04-Aug-21 09:06 33.803659 -118.344525 346 105ft 0kts
04-Aug-21 09:07 33.803659 -118.344525 346 105ft 0kts
04-Aug-21 09:08 33.803664 -118.344526 352 105ft 1kts
04-Aug-21 09:09 33.800923 -118.340154 127 104ft 24kts
04-Aug-21 09:10 33.798215 -118.335793 65 108ft 2kts
04-Aug-21 09:11 33.798821 -118.333546 36 102ft 13kts
04-Aug-21 09:12 33.799108 -118.333296 37 101ft 0kts
04-Aug-21 09:13 33.806901 -118.343605 302 157ft 87kts
04-Aug-21 09:14 33.819964 -118.366375 299 1010ft 85kts
04-Aug-21 09:15 33.828726 -118.393222 283 1846ft 88kts
04-Aug-21 09:16 33.837814 -118.419927 288 2685ft 84kts
04-Aug-21 09:17 33.856766 -118.426237 6 3315ft 82kts
04-Aug-21 09:18 33.884260 -118.421412 9 3768ft 115kts
04-Aug-21 09:19 33.897577 -118.386545 90 3783ft 137kts
04-Aug-21 09:20 33.903021 -118.342233 93 3767ft 135kts
04-Aug-21 09:21 33.905276 -118.314583 329 3854ft 131kts
04-Aug-21 09:22 33.921491 -118.354806 303 3788ft 136kts
04-Aug-21 09:23 33.946103 -118.387514 318 3975ft 133kts
04-Aug-21 09:24 33.974161 -118.417448 317 3987ft 136kts
04-Aug-21 09:25 34.001791 -118.447602 317 3989ft 137kts
04-Aug-21 09:26 34.029081 -118.479218 301 3986ft 136kts
04-Aug-21 09:27 34.063835 -118.489876 358 3992ft 136kts
04-Aug-21 09:28 34.101808 -118.490701 359 3999ft 137kts
04-Aug-21 09:29 34.135833 -118.500303 315 4032ft 134kts
04-Aug-21 09:30 34.161821 -118.533149 313 4020ft 136kts
04-Aug-21 09:31 34.187400 -118.566842 297 4011ft 135kts
04-Aug-21 09:32 34.184500 -118.607962 260 4019ft 118kts
04-Aug-21 09:33 34.179108 -118.646903 260 4018ft 117kts
04-Aug-21 09:34 34.176381 -118.686087 267 4019ft 116kts
04-Aug-21 09:35 34.174944 -118.725272 267 4019ft 117kts
04-Aug-21 09:36 34.173574 -118.764498 267 4019ft 116kts
04-Aug-21 09:37 34.174534 -118.804476 282 3872ft 122kts
04-Aug-21 09:38 34.183719 -118.844715 288 3683ft 128kts
04-Aug-21 09:39 34.191379 -118.887220 273 3511ft 131kts
04-Aug-21 09:40 34.191555 -118.931928 271 3492ft 132kts
04-Aug-21 09:41 34.193182 -118.973280 273 3882ft 112kts
04-Aug-21 09:42 34.196789 -119.009941 280 3781ft 107kts
04-Aug-21 09:43 34.199716 -119.048191 268 3130ft 114kts
04-Aug-21 09:44 34.201163 -119.085520 279 2750ft 110kts
04-Aug-21 09:45 34.200688 -119.123163 268 2239ft 114kts
04-Aug-21 09:46 34.200348 -119.157377 266 1617ft 82kts
04-Aug-21 09:47 34.200694 -119.184988 272 490ft 80kts
04-Aug-21 09:48 34.200799 -119.202697 265 47ft 14kts
04-Aug-21 09:49 34.199763 -119.204407 268 47ft 15kts
04-Aug-21 09:50 34.199357 -119.205638 191 46ft 0kts

Navigation Log

Ident Type
Flight plan parsing failed, navigation log unavailable